New Waterford, Ohio
Current Conditions -  °F | °C
As of 9:35 AM on Thursday 27 Nov 2014 (Local Time) from KYNG Reporting Station
Light Snow Light Snow  
Wind Chill: 28°   Ceiling: 500
Heat Index: 33°   Visibility: 2.5mi
Dew Point: 30°   Wind: 6mph
Humidity: 89%   Direction: 300°WNW
Pressure: 30.05"   Gusts: NA
Location:  40.85°N, 80.61°W
Report Text: KYNG 271435Z 30005KT 2 1/2SM -SN BR BKN005 OVC032 01/M01 A3005 RMK AO2 VIS NW 1 1/2 P0000 T00061011
Loading
Personal Weather Stations






























Interactive Weather Map New forecast layout! Learn more

10-Day Weather Forecast

Advertisements
Track Severe Weather on mobile